Time;durP1;ratioP1;P1;durP2;ratioP2;P2;SDS_P1;SDS_P2;PMS_P1;PMS_P2;Temp;Humidity;BMP_temperature;BMP_pressure;BME280_temperature;BME280_humidity;BME280_pressure;Samples;Min_cycle;Max_cycle;Signal;HPM_P1;HPM_P2
2022/11/09 00:02:08;;;;;;;3.70;3.00;;;13.00;78.00;;;;;;5079651;28;20318;-43
2022/11/09 00:04:33;;;;;;;3.87;3.47;;;13.00;77.90;;;;;;5061330;28;20184;-45
2022/11/09 00:07:00;;;;;;;4.53;3.37;;;13.00;77.80;;;;;;5078952;28;20209;-45
2022/11/09 00:09:26;;;;;;;3.80;2.90;;;13.00;77.80;;;;;;5078923;28;20265;-45
2022/11/09 00:11:52;;;;;;;3.13;2.57;;;13.00;77.70;;;;;;5079513;28;20504;-44
2022/11/09 00:14:18;;;;;;;3.10;2.80;;;13.00;77.70;;;;;;5072438;28;20194;-46
2022/11/09 00:16:44;;;;;;;3.60;3.13;;;13.00;77.70;;;;;;5062705;28;20440;-43
2022/11/09 00:19:11;;;;;;;3.23;2.93;;;13.00;77.70;;;;;;5061844;28;20178;-45
2022/11/09 00:21:37;;;;;;;3.70;3.27;;;13.10;77.70;;;;;;5074754;28;20179;-46
2022/11/09 00:24:03;;;;;;;3.40;3.10;;;13.10;77.70;;;;;;5100410;28;20434;-46
2022/11/09 00:26:28;;;;;;;3.80;2.83;;;13.10;77.50;;;;;;5099267;28;20593;-43
2022/11/09 00:28:54;;;;;;;4.50;3.23;;;13.10;77.40;;;;;;5095387;28;20181;-44
2022/11/09 00:31:21;;;;;;;3.90;3.20;;;13.10;77.40;;;;;;5081039;28;20178;-46
2022/11/09 00:33:54;;;;;;;6.30;3.47;;;13.10;77.30;;;;;;5062228;28;20173;-43
2022/11/09 00:36:21;;;;;;;3.83;3.20;;;13.10;77.10;;;;;;5079603;28;20420;-43
2022/11/09 00:38:54;;;;;;;3.97;3.23;;;13.10;77.80;;;;;;5075613;28;20432;-45
2022/11/09 00:41:20;;;;;;;6.43;3.27;;;13.10;77.00;;;;;;5076638;28;20404;-44
2022/11/09 00:43:46;;;;;;;3.00;2.67;;;13.20;77.10;;;;;;5079800;28;20522;-44
2022/11/09 00:46:12;;;;;;;3.10;2.83;;;13.20;77.00;;;;;;5079748;28;20230;-45
2022/11/09 00:48:38;;;;;;;3.40;2.90;;;13.20;77.00;;;;;;5080291;28;20702;-43
2022/11/09 00:51:05;;;;;;;2.97;2.50;;;13.20;76.90;;;;;;5078872;28;20395;-45
2022/11/09 00:53:31;;;;;;;5.50;3.60;;;13.20;76.80;;;;;;5072319;28;20229;-45
2022/11/09 00:55:57;;;;;;;3.50;2.93;;;13.20;76.80;;;;;;5059510;28;20413;-46
2022/11/09 00:58:23;;;;;;;3.93;2.63;;;13.20;76.70;;;;;;5059807;28;20423;-50
2022/11/09 01:00:49;;;;;;;3.67;2.77;;;13.20;76.60;;;;;;5059496;28;20170;-48
2022/11/09 01:03:15;;;;;;;3.13;2.83;;;13.20;76.50;;;;;;5059644;28;20404;-45
2022/11/09 01:05:41;;;;;;;3.60;2.90;;;13.20;76.50;;;;;;5059618;28;20897;-44
2022/11/09 01:08:06;;;;;;;3.63;3.13;;;13.20;76.30;;;;;;5059153;28;20198;-44
2022/11/09 01:10:32;;;;;;;3.23;2.90;;;13.20;76.30;;;;;;5059300;28;20178;-44
2022/11/09 01:12:58;;;;;;;4.13;2.60;;;13.30;76.40;;;;;;5059144;28;20181;-44
2022/11/09 01:15:24;;;;;;;4.10;3.27;;;13.30;76.40;;;;;;5058755;28;20180;-43
2022/11/09 01:17:50;;;;;;;3.20;2.60;;;13.30;76.40;;;;;;5059682;28;20483;-44
2022/11/09 01:20:16;;;;;;;3.67;2.70;;;13.20;76.30;;;;;;5059111;28;20704;-44
2022/11/09 01:22:42;;;;;;;4.40;2.80;;;13.30;76.50;;;;;;5078273;28;20252;-44
2022/11/09 01:25:08;;;;;;;4.03;2.90;;;13.30;76.60;;;;;;5078777;28;20467;-45
2022/11/09 01:27:34;;;;;;;4.90;2.80;;;13.30;76.60;;;;;;5083567;28;20246;-43
2022/11/09 01:30:00;;;;;;;2.83;2.63;;;13.30;76.60;;;;;;5099249;28;20419;-44
2022/11/09 01:32:25;;;;;;;3.63;3.03;;;13.30;76.60;;;;;;5097412;28;20426;-43
2022/11/09 01:34:52;;;;;;;2.83;2.63;;;13.30;76.70;;;;;;5098553;28;20559;-46
2022/11/09 01:37:18;;;;;;;3.67;3.30;;;13.30;76.70;;;;;;5098588;28;20193;-45
2022/11/09 01:39:43;;;;;;;3.20;2.80;;;13.30;76.70;;;;;;5097258;28;20859;-46
2022/11/09 01:42:09;;;;;;;2.77;2.47;;;13.30;76.70;;;;;;5098354;28;20182;-44
2022/11/09 01:44:37;;;;;;;6.33;3.17;;;13.30;76.70;;;;;;5098645;28;20178;-43
2022/11/09 01:47:11;;;;;;;3.67;2.77;;;13.30;76.80;;;;;;5098611;28;20603;-45
2022/11/09 01:49:48;;;;;;;3.13;2.67;;;13.30;76.70;;;;;;5098617;28;20521;-44
2022/11/09 01:52:23;;;;;;;3.60;2.57;;;13.40;76.80;;;;;;5098147;28;20436;-43
2022/11/09 01:54:52;;;;;;;3.70;2.77;;;13.40;76.80;;;;;;5115457;28;20458;-46
2022/11/09 01:57:25;;;;;;;4.33;3.23;;;13.40;76.70;;;;;;5100734;28;20434;-45
2022/11/09 01:59:55;;;;;;;3.20;2.50;;;13.40;76.70;;;;;;5119011;28;20520;-47
2022/11/09 02:02:21;;;;;;;4.13;3.00;;;13.40;76.70;;;;;;5100930;28;20480;-44
2022/11/09 02:04:55;;;;;;;3.30;2.60;;;13.40;76.70;;;;;;5099788;28;20449;-45
2022/11/09 02:07:21;;;;;;;3.47;2.90;;;13.40;76.70;;;;;;5118726;28;20453;-43
2022/11/09 02:09:51;;;;;;;3.33;2.50;;;13.40;76.70;;;;;;5118382;28;21033;-43
2022/11/09 02:12:18;;;;;;;3.20;2.63;;;13.40;76.70;;;;;;5100590;28;20492;-46
2022/11/09 02:14:44;;;;;;;3.13;2.53;;;13.40;76.60;;;;;;5108420;28;20428;-46
2022/11/09 02:17:10;;;;;;;3.07;2.50;;;13.40;76.60;;;;;;5116482;28;20410;-46
2022/11/09 02:19:36;;;;;;;3.83;2.80;;;13.50;76.70;;;;;;5097995;28;20434;-45
2022/11/09 02:22:02;;;;;;;2.73;2.23;;;13.50;76.70;;;;;;5116445;28;20419;-44
2022/11/09 02:24:27;;;;;;;4.50;3.37;;;13.40;76.60;;;;;;5116600;28;20189;-47
2022/11/09 02:26:53;;;;;;;2.90;2.67;;;13.40;76.70;;;;;;5116516;28;20743;-46
2022/11/09 02:29:25;;;;;;;2.50;2.30;;;13.40;76.70;;;;;;5108593;28;20191;-44
2022/11/09 02:32:21;;;;;;;3.03;2.70;;;13.40;76.70;;;;;;5100673;28;20170;-50
2022/11/09 02:34:46;;;;;;;3.67;2.70;;;13.50;76.80;;;;;;5100512;28;20496;-45
2022/11/09 02:37:12;;;;;;;3.33;2.97;;;13.50;76.80;;;;;;5117980;28;20725;-44
2022/11/09 02:39:38;;;;;;;3.90;2.90;;;13.40;76.60;;;;;;5117744;28;20190;-45
2022/11/09 02:42:13;;;;;;;2.93;2.63;;;13.50;76.70;;;;;;5100407;28;20172;-44
2022/11/09 02:44:45;;;;;;;3.60;2.67;;;13.50;76.80;;;;;;5100227;28;20179;-45
2022/11/09 02:47:10;;;;;;;2.70;2.23;;;13.50;76.80;;;;;;5098387;28;20514;-44
2022/11/09 02:49:36;;;;;;;3.30;3.00;;;13.50;76.80;;;;;;5117782;28;20419;-46
2022/11/09 02:52:02;;;;;;;2.90;2.53;;;13.50;76.80;;;;;;5116819;28;20644;-44
2022/11/09 02:54:27;;;;;;;5.60;3.27;;;13.50;76.90;;;;;;5116204;28;20228;-48
2022/11/09 02:56:53;;;;;;;3.77;3.00;;;13.50;77.00;;;;;;5116768;28;20176;-46
2022/11/09 02:59:19;;;;;;;4.30;2.87;;;13.50;77.10;;;;;;5108527;28;20189;-46
2022/11/09 03:01:44;;;;;;;5.17;3.13;;;13.50;77.50;;;;;;5116828;28;20171;-45
2022/11/09 03:04:10;;;;;;;4.07;3.10;;;13.50;77.80;;;;;;5117369;28;20180;-44
2022/11/09 03:06:36;;;;;;;3.87;3.17;;;13.50;78.00;;;;;;5117402;28;20192;-46
2022/11/09 03:09:06;;;;;;;6.23;3.40;;;13.40;78.20;;;;;;5117654;28;20609;-44
2022/11/09 03:11:32;;;;;;;3.83;3.50;;;13.40;78.60;;;;;;5118071;28;20408;-44
2022/11/09 03:13:58;;;;;;;4.33;3.93;;;13.40;79.00;;;;;;5112332;28;20452;-46
2022/11/09 03:16:24;;;;;;;3.87;3.47;;;13.40;79.90;;;;;;5115345;28;20485;-45
2022/11/09 03:18:50;;;;;;;5.27;4.17;;;13.30;80.60;;;;;;5117976;28;20180;-46
2022/11/09 03:21:16;;;;;;;4.20;3.80;;;13.30;81.50;;;;;;5117667;28;20414;-46
2022/11/09 03:23:42;;;;;;;4.30;3.90;;;13.30;82.10;;;;;;5113940;28;20431;-45
2022/11/09 03:26:08;;;;;;;5.80;4.30;;;13.20;82.60;;;;;;5112432;28;20889;-45
2022/11/09 03:28:34;;;;;;;4.60;4.17;;;13.20;83.40;;;;;;5117219;28;20176;-45
2022/11/09 03:30:59;;;;;;;5.47;4.13;;;13.20;83.80;;;;;;5117547;28;20497;-45
2022/11/09 03:33:25;;;;;;;5.07;4.57;;;13.20;84.30;;;;;;5116486;28;20217;-43
2022/11/09 03:35:50;;;;;;;4.00;3.60;;;13.10;84.80;;;;;;5110276;28;20172;-44
2022/11/09 03:38:17;;;;;;;4.53;4.10;;;13.10;85.30;;;;;;5118275;28;20170;-47
2022/11/09 03:40:42;;;;;;;4.77;3.90;;;13.10;86.00;;;;;;5116776;28;20197;-44
2022/11/09 03:43:08;;;;;;;4.27;3.77;;;13.10;86.50;;;;;;5116155;28;20946;-43
2022/11/09 03:45:33;;;;;;;4.10;3.70;;;13.00;87.00;;;;;;5117005;28;20172;-48
2022/11/09 03:47:59;;;;;;;6.87;4.17;;;13.00;87.50;;;;;;5116319;28;20304;-44
2022/11/09 03:50:26;;;;;;;4.80;4.40;;;13.00;88.70;;;;;;5117410;28;20207;-47
2022/11/09 03:52:52;;;;;;;3.53;3.23;;;13.00;88.50;;;;;;5099506;28;20184;-43
2022/11/09 03:55:18;;;;;;;4.47;4.07;;;13.00;89.20;;;;;;5117208;28;20524;-45
2022/11/09 03:57:45;;;;;;;5.37;4.83;;;13.00;89.90;;;;;;5117751;28;20192;-43
2022/11/09 04:00:12;;;;;;;4.23;3.73;;;13.00;90.30;;;;;;5098799;28;20828;-45
2022/11/09 04:02:38;;;;;;;4.27;3.87;;;12.90;90.50;;;;;;5117769;28;20409;-46
2022/11/09 04:05:04;;;;;;;3.53;3.23;;;12.90;90.70;;;;;;5119373;28;20946;-46
2022/11/09 04:07:30;;;;;;;5.00;4.50;;;12.90;91.00;;;;;;5120127;28;20201;-46
2022/11/09 04:09:56;;;;;;;5.07;4.57;;;12.90;91.20;;;;;;5114344;28;20855;-44
2022/11/09 04:12:22;;;;;;;8.27;5.83;;;12.90;91.40;;;;;;5091549;28;20424;-44
2022/11/09 04:14:47;;;;;;;6.43;5.73;;;12.90;91.70;;;;;;5071883;28;20244;-44
2022/11/09 04:17:13;;;;;;;8.70;6.07;;;12.80;91.80;;;;;;5063545;28;20219;-48
2022/11/09 04:19:39;;;;;;;5.83;5.13;;;12.80;92.00;;;;;;5080240;28;20266;-43
2022/11/09 04:22:04;;;;;;;6.07;5.47;;;12.80;92.20;;;;;;5079951;28;20176;-46
2022/11/09 04:24:30;;;;;;;5.70;5.20;;;12.80;92.40;;;;;;5079802;28;20187;-45
2022/11/09 04:26:55;;;;;;;5.10;4.63;;;12.80;92.60;;;;;;5078635;28;20213;-45
2022/11/09 04:29:21;;;;;;;4.07;3.67;;;12.80;92.80;;;;;;5078035;28;20174;-45
2022/11/09 04:31:48;;;;;;;6.00;4.70;;;12.80;93.00;;;;;;5079161;28;20173;-43
2022/11/09 04:34:14;;;;;;;4.50;4.10;;;12.80;93.20;;;;;;5078321;28;20181;-44
2022/11/09 04:36:39;;;;;;;4.33;3.93;;;12.80;93.30;;;;;;5078192;28;20829;-44
2022/11/09 04:39:05;;;;;;;5.37;4.33;;;12.80;93.60;;;;;;5071766;28;20178;-45
2022/11/09 04:41:30;;;;;;;5.00;3.80;;;12.80;93.90;;;;;;5076990;28;20490;-43
2022/11/09 04:43:56;;;;;;;4.17;3.80;;;12.80;94.10;;;;;;5079305;28;20182;-46
2022/11/09 04:46:22;;;;;;;3.83;3.47;;;12.70;94.30;;;;;;5079451;28;20245;-46
2022/11/09 04:48:47;;;;;;;5.00;3.57;;;12.70;94.60;;;;;;5075576;28;20639;-46
2022/11/09 04:51:13;;;;;;;6.87;4.43;;;12.70;95.00;;;;;;5074895;28;20257;-43
2022/11/09 04:53:39;;;;;;;5.77;4.43;;;12.70;95.40;;;;;;5078862;28;20229;-43
2022/11/09 04:56:06;;;;;;;5.07;4.57;;;12.70;96.30;;;;;;5078909;28;20185;-47
2022/11/09 04:58:31;;;;;;;4.80;4.40;;;12.60;96.80;;;;;;5075759;28;20434;-43
2022/11/09 05:01:02;;;;;;;5.77;5.17;;;12.50;97.20;;;;;;5071478;28;20505;-44
2022/11/09 05:03:28;;;;;;;4.43;3.80;;;12.40;97.50;;;;;;5077422;28;20170;-47
2022/11/09 05:05:54;;;;;;;4.17;3.70;;;12.40;97.80;;;;;;5076950;28;20410;-43
2022/11/09 05:08:19;;;;;;;4.03;3.70;;;12.30;97.90;;;;;;5058549;28;20205;-44
2022/11/09 05:10:45;;;;;;;4.70;3.70;;;12.30;98.20;;;;;;5076888;28;20212;-44
2022/11/09 05:13:12;;;;;;;4.87;4.27;;;12.30;98.40;;;;;;5073568;28;20234;-44
2022/11/09 05:15:38;;;;;;;4.50;4.07;;;12.30;98.80;;;;;;5072808;28;20549;-43
2022/11/09 05:18:04;;;;;;;4.20;3.80;;;12.30;98.60;;;;;;5074879;28;20449;-44
2022/11/09 05:20:34;;;;;;;4.30;3.90;;;12.30;98.70;;;;;;5073724;28;20431;-42
2022/11/09 05:25:44;;;;;;;4.23;3.17;;;12.20;98.70;;;;;;5071973;28;20515;-44
2022/11/09 05:28:10;;;;;;;4.10;3.70;;;12.20;98.70;;;;;;5072046;28;20532;-43
2022/11/09 05:30:36;;;;;;;4.77;4.17;;;12.20;98.70;;;;;;5055688;28;20777;-43
2022/11/09 05:33:02;;;;;;;6.83;4.33;;;12.20;98.70;;;;;;5073367;28;20510;-46
2022/11/09 05:35:28;;;;;;;4.83;4.33;;;12.20;98.70;;;;;;5052995;28;20473;-43
2022/11/09 05:37:53;;;;;;;5.80;3.60;;;12.20;98.70;;;;;;5073245;28;20539;-44
2022/11/09 05:40:19;;;;;;;4.13;3.63;;;12.20;98.60;;;;;;5073852;28;20262;-46
2022/11/09 05:42:45;;;;;;;3.60;3.30;;;12.20;98.60;;;;;;5073229;28;20512;-42
2022/11/09 05:45:13;;;;;;;3.87;3.50;;;12.20;98.60;;;;;;5073950;28;20684;-45
2022/11/09 05:47:42;;;;;;;4.10;3.73;;;12.20;98.50;;;;;;5074822;28;20477;-43
2022/11/09 05:50:10;;;;;;;3.90;3.23;;;12.20;98.50;;;;;;5074138;28;20428;-48
2022/11/09 05:52:36;;;;;;;3.60;3.27;;;12.20;98.40;;;;;;5056692;28;20419;-46
2022/11/09 05:55:02;;;;;;;4.40;4.00;;;12.20;98.40;;;;;;5074783;28;20631;-44
2022/11/09 05:57:28;;;;;;;4.33;3.60;;;12.20;98.30;;;;;;5074390;28;20185;-46
2022/11/09 05:59:54;;;;;;;3.17;2.87;;;12.20;98.20;;;;;;5072745;28;20434;-44
2022/11/09 06:02:20;;;;;;;4.40;3.07;;;12.20;98.10;;;;;;5071695;28;20205;-44
2022/11/09 06:04:45;;;;;;;4.40;3.50;;;12.20;98.10;;;;;;5073300;28;20214;-44
2022/11/09 06:07:11;;;;;;;3.20;2.90;;;12.20;98.10;;;;;;5056537;28;20206;-43
2022/11/09 06:09:37;;;;;;;4.33;3.43;;;12.20;98.00;;;;;;5081653;28;20267;-44
2022/11/09 06:12:03;;;;;;;3.20;2.90;;;12.20;98.00;;;;;;5071820;28;20490;-45
2022/11/09 06:14:28;;;;;;;5.10;3.20;;;12.20;98.00;;;;;;5072641;28;20429;-47
2022/11/09 06:16:54;;;;;;;4.87;2.90;;;12.20;98.00;;;;;;5071780;28;20501;-42
2022/11/09 06:19:20;;;;;;;4.10;3.17;;;12.20;98.00;;;;;;5070625;28;20188;-45
2022/11/09 06:21:45;;;;;;;8.80;6.10;;;12.20;97.90;;;;;;5070695;28;20253;-44
2022/11/09 06:24:11;;;;;;;9.37;8.00;;;12.20;97.90;;;;;;5070080;28;20801;-45
2022/11/09 06:26:37;;;;;;;11.07;8.90;;;12.20;97.90;;;;;;5077007;28;20209;-46
2022/11/09 06:29:03;;;;;;;11.20;9.03;;;12.20;98.00;;;;;;5090329;28;20431;-45
2022/11/09 06:31:29;;;;;;;12.00;10.03;;;12.20;98.00;;;;;;5088017;28;20165;-44
2022/11/09 06:33:54;;;;;;;10.60;9.30;;;12.20;98.00;;;;;;5068579;28;20485;-44
2022/11/09 06:36:20;;;;;;;13.33;10.80;;;12.20;98.00;;;;;;5089117;28;20204;-46
2022/11/09 06:38:50;;;;;;;11.87;10.17;;;12.20;98.00;;;;;;5087765;28;20636;-43
2022/11/09 06:41:16;;;;;;;10.87;9.50;;;12.20;97.90;;;;;;5092611;28;20466;-43
2022/11/09 06:43:42;;;;;;;9.53;8.53;;;12.30;98.00;;;;;;5090898;28;20753;-44
2022/11/09 06:46:09;;;;;;;8.70;7.33;;;12.20;97.90;;;;;;5088163;28;20407;-46
2022/11/09 06:48:38;;;;;;;8.20;7.00;;;12.20;98.00;;;;;;5090182;28;20418;-46
2022/11/09 06:51:06;;;;;;;6.30;5.70;;;12.20;98.00;;;;;;5089559;28;20821;-45
2022/11/09 06:53:33;;;;;;;5.47;4.93;;;12.20;98.00;;;;;;5090017;28;20950;-44
2022/11/09 06:56:01;;;;;;;6.30;5.07;;;12.30;98.10;;;;;;5090491;28;20506;-45
2022/11/09 06:58:30;;;;;;;4.73;3.90;;;12.30;98.10;;;;;;5091887;28;20416;-46
2022/11/09 07:00:56;;;;;;;4.27;3.87;;;12.30;98.50;;;;;;5093218;28;20415;-43
2022/11/09 07:03:22;;;;;;;4.63;3.47;;;12.30;98.40;;;;;;5077773;28;20404;-44
2022/11/09 07:05:49;;;;;;;4.97;4.43;;;12.30;98.50;;;;;;5079018;28;20424;-45
2022/11/09 07:08:17;;;;;;;5.10;3.93;;;12.30;98.60;;;;;;5078633;28;20948;-43
2022/11/09 07:10:45;;;;;;;3.50;3.20;;;12.30;98.60;;;;;;5078318;28;20735;-47
2022/11/09 07:13:11;;;;;;;4.20;3.80;;;12.30;98.70;;;;;;5060472;28;20462;-43
2022/11/09 07:15:46;;;;;;;3.33;2.93;;;12.30;98.70;;;;;;5060324;28;21081;-45
2022/11/09 07:18:14;;;;;;;5.43;3.37;;;12.40;98.80;;;;;;5077830;28;20421;-44
2022/11/09 07:20:40;;;;;;;7.47;4.00;;;12.40;98.80;;;;;;5095442;28;20519;-45
2022/11/09 07:23:06;;;;;;;5.47;3.40;;;12.40;98.80;;;;;;5058964;28;20480;-45
2022/11/09 07:25:34;;;;;;;5.57;4.00;;;12.40;98.80;;;;;;5095437;28;20466;-45
2022/11/09 07:28:06;;;;;;;5.80;4.27;;;12.40;98.90;;;;;;5059683;28;20762;-45
2022/11/09 07:30:32;;;;;;;5.30;4.80;;;12.40;98.80;;;;;;5060723;28;20508;-46
2022/11/09 07:33:17;;;;;;;5.77;5.17;;;12.40;98.80;;;;;;5095123;28;20433;-45
2022/11/09 07:35:44;;;;;;;4.80;3.97;;;12.50;99.00;;;;;;5095778;28;20670;-46
2022/11/09 07:38:19;;;;;;;5.83;4.40;;;12.50;99.00;;;;;;5097371;28;20693;-45
2022/11/09 07:40:45;;;;;;;4.87;4.30;;;12.50;99.00;;;;;;5079763;28;20433;-43
2022/11/09 07:43:11;;;;;;;4.97;3.70;;;12.50;99.00;;;;;;5096723;28;20411;-48
2022/11/09 07:45:37;;;;;;;5.13;3.70;;;12.50;99.00;;;;;;5097159;28;20174;-44
2022/11/09 07:48:06;;;;;;;4.80;4.30;;;12.60;99.00;;;;;;5079097;28;20473;-43
2022/11/09 07:50:32;;;;;;;4.90;3.80;;;12.70;99.00;;;;;;5095311;28;20408;-46
2022/11/09 07:53:00;;;;;;;5.57;4.03;;;12.70;98.80;;;;;;5095070;28;20409;-45
2022/11/09 07:55:27;;;;;;;4.27;3.67;;;12.80;98.70;;;;;;5094822;28;20411;-46
2022/11/09 07:58:03;;;;;;;4.90;4.23;;;12.80;98.60;;;;;;5097549;28;20417;-44
2022/11/09 08:00:30;;;;;;;5.17;3.97;;;12.90;98.60;;;;;;5095001;28;20716;-45
2022/11/09 08:02:56;;;;;;;5.23;3.93;;;12.90;98.50;;;;;;5077134;28;20411;-45
2022/11/09 08:05:21;;;;;;;4.60;4.10;;;12.90;98.40;;;;;;5095241;28;20726;-45
2022/11/09 08:07:47;;;;;;;7.27;3.57;;;12.90;98.30;;;;;;5095408;28;20698;-44
2022/11/09 08:10:14;;;;;;;5.60;4.20;;;12.90;98.30;;;;;;5093992;28;20173;-44
2022/11/09 08:12:39;;;;;;;5.23;3.97;;;13.00;98.30;;;;;;5093807;28;20320;-43
2022/11/09 08:15:06;;;;;;;3.77;3.40;;;13.00;98.30;;;;;;5059600;28;20415;-43
2022/11/09 08:17:31;;;;;;;3.93;3.00;;;13.00;98.40;;;;;;5078883;28;20189;-44
2022/11/09 08:19:57;;;;;;;3.60;3.30;;;13.00;98.40;;;;;;5095875;28;20413;-45
2022/11/09 08:22:23;;;;;;;3.77;3.10;;;13.00;98.40;;;;;;5063098;28;20274;-42
2022/11/09 08:24:49;;;;;;;3.40;3.00;;;13.10;98.60;;;;;;5080051;28;20191;-45
2022/11/09 08:27:14;;;;;;;5.53;3.30;;;13.10;98.60;;;;;;5096166;28;20290;-43
2022/11/09 08:29:40;;;;;;;3.90;2.73;;;13.10;98.60;;;;;;5096292;28;20829;-46
2022/11/09 08:32:06;;;;;;;4.10;2.77;;;13.20;98.70;;;;;;5095339;28;20260;-45
2022/11/09 08:34:31;;;;;;;3.80;2.60;;;13.20;98.70;;;;;;5096093;28;20542;-44
2022/11/09 08:37:01;;;;;;;3.83;2.17;;;13.30;98.70;;;;;;5097553;28;20168;-43
2022/11/09 08:39:26;;;;;;;4.20;2.20;;;13.30;98.70;;;;;;5097177;28;20537;-45
2022/11/09 08:41:52;;;;;;;2.97;2.00;;;13.40;98.80;;;;;;5079373;28;20458;-45
2022/11/09 08:44:18;;;;;;;2.90;1.80;;;13.40;98.70;;;;;;5079375;28;20223;-45
2022/11/09 08:46:43;;;;;;;2.47;2.13;;;13.50;98.70;;;;;;5067690;28;20214;-45
2022/11/09 08:49:09;;;;;;;2.07;1.63;;;13.60;98.80;;;;;;5090074;28;20180;-45
2022/11/09 08:51:35;;;;;;;2.30;2.10;;;13.60;98.70;;;;;;5077614;28;20177;-44
2022/11/09 08:54:01;;;;;;;2.43;1.53;;;13.70;98.60;;;;;;5062170;28;20228;-43
2022/11/09 08:56:27;;;;;;;2.10;1.60;;;13.80;98.50;;;;;;5078635;28;20254;-44
2022/11/09 08:58:53;;;;;;;2.17;1.67;;;13.80;98.40;;;;;;5078240;28;20420;-45
2022/11/09 09:01:18;;;;;;;2.20;1.30;;;14.00;98.50;;;;;;5076650;28;20239;-45
2022/11/09 09:03:45;;;;;;;2.53;1.67;;;14.10;98.30;;;;;;5096577;28;20366;-44
2022/11/09 09:06:12;;;;;;;1.83;1.27;;;14.10;98.20;;;;;;5078611;28;20196;-43
2022/11/09 09:08:37;;;;;;;2.10;1.27;;;14.20;98.10;;;;;;5096379;28;20540;-46
2022/11/09 09:11:04;;;;;;;1.60;1.20;;;14.20;98.00;;;;;;5095787;28;21130;-45
2022/11/09 09:13:30;;;;;;;2.40;1.50;;;14.30;98.00;;;;;;5095011;28;20270;-45
2022/11/09 09:15:56;;;;;;;1.77;1.13;;;14.30;97.80;;;;;;5059690;28;20741;-46
2022/11/09 09:18:22;;;;;;;1.30;1.20;;;14.30;97.80;;;;;;5095536;28;20771;-45
2022/11/09 09:20:49;;;;;;;1.20;0.90;;;14.30;97.80;;;;;;5061284;28;20184;-44
2022/11/09 09:23:15;;;;;;;1.50;1.10;;;14.40;97.80;;;;;;5078957;28;20164;-44
2022/11/09 09:25:42;;;;;;;1.33;0.97;;;14.50;97.80;;;;;;5093769;28;20438;-44
2022/11/09 09:28:08;;;;;;;1.53;0.87;;;14.50;97.80;;;;;;5095425;28;20455;-44
2022/11/09 09:30:34;;;;;;;2.40;1.30;;;14.60;97.70;;;;;;5077650;28;20407;-45
2022/11/09 09:33:00;;;;;;;1.50;1.10;;;14.70;97.70;;;;;;5096170;28;20551;-44
2022/11/09 09:35:26;;;;;;;1.73;1.20;;;14.90;97.60;;;;;;5079146;28;20409;-44
2022/11/09 09:37:53;;;;;;;1.60;1.20;;;15.10;97.60;;;;;;5080373;28;20237;-45
2022/11/09 09:40:30;;;;;;;1.30;1.10;;;15.30;97.50;;;;;;5097667;28;20418;-43
2022/11/09 09:43:00;;;;;;;1.77;1.20;;;15.70;97.20;;;;;;5097733;28;20423;-44
2022/11/09 09:45:32;;;;;;;2.50;1.23;;;16.00;96.70;;;;;;5098911;28;20416;-45
2022/11/09 09:48:34;;;;;;;1.90;1.63;;;16.30;96.40;;;;;;5079976;28;20470;-45
2022/11/09 09:51:06;;;;;;;2.30;1.90;;;16.60;95.70;;;;;;5078843;28;20824;-45
2022/11/09 09:53:39;;;;;;;2.70;1.60;;;16.80;95.20;;;;;;5061409;28;20604;-45
2022/11/09 09:56:12;;;;;;;1.90;1.70;;;17.00;94.90;;;;;;5095851;28;20434;-45
2022/11/09 09:58:44;;;;;;;1.87;1.50;;;17.20;94.40;;;;;;5097316;28;20412;-45
2022/11/09 10:01:21;;;;;;;2.17;1.97;;;17.20;94.00;;;;;;5078802;28;20481;-44
2022/11/09 10:03:48;;;;;;;2.70;2.03;;;17.30;93.80;;;;;;5096518;28;20407;-46
2022/11/09 10:06:25;;;;;;;2.63;1.70;;;17.30;93.60;;;;;;5095467;28;20425;-45
2022/11/09 10:08:55;;;;;;;2.27;1.87;;;17.30;93.60;;;;;;5095657;28;21026;-46
2022/11/09 10:11:39;;;;;;;2.40;2.00;;;17.40;93.60;;;;;;5095444;28;20419;-44
2022/11/09 10:14:32;;;;;;;2.57;1.60;;;17.50;93.50;;;;;;5096595;28;20407;-44
2022/11/09 10:17:13;;;;;;;2.63;2.07;;;17.70;93.40;;;;;;5094407;28;20434;-45
2022/11/09 10:19:45;;;;;;;3.90;2.33;;;17.80;93.20;;;;;;5077195;28;21134;-44
2022/11/09 10:22:49;;;;;;;4.50;1.93;;;17.90;93.00;;;;;;5081704;28;20441;-50
2022/11/09 10:25:18;;;;;;;4.07;2.23;;;18.10;93.10;;;;;;5025046;28;20428;-47
2022/11/09 10:28:06;;;;;;;2.60;2.10;;;18.40;92.40;;;;;;5074271;28;20481;-45
2022/11/09 10:30:32;;;;;;;2.50;2.27;;;18.60;91.90;;;;;;5057282;28;20480;-45
2022/11/09 10:33:12;;;;;;;2.77;1.87;;;18.70;91.70;;;;;;5039276;28;20706;-44
2022/11/09 10:36:20;;;;;;;2.40;1.97;;;18.90;91.30;;;;;;5056393;28;20469;-47
2022/11/09 10:38:49;;;;;;;1.90;1.50;;;18.90;90.70;;;;;;4997579;28;20421;-45
2022/11/09 10:41:40;;;;;;;2.50;2.30;;;18.90;90.30;;;;;;5085468;28;20428;-44
2022/11/09 10:44:15;;;;;;;2.60;2.30;;;18.90;90.20;;;;;;5066375;28;20694;-43
2022/11/09 10:47:03;;;;;;;2.60;1.83;;;18.90;90.20;;;;;;5094577;28;20559;-43
2022/11/09 10:49:29;;;;;;;2.70;2.07;;;18.90;90.30;;;;;;5092699;28;20411;-45
2022/11/09 10:51:54;;;;;;;3.70;2.20;;;18.90;90.20;;;;;;5077563;28;20436;-45
2022/11/09 10:54:26;;;;;;;2.80;2.27;;;18.80;90.20;;;;;;5095386;28;20504;-44
2022/11/09 10:57:22;;;;;;;3.30;1.90;;;18.80;90.30;;;;;;5093619;28;20200;-44
2022/11/09 10:59:56;;;;;;;2.30;2.10;;;18.70;90.30;;;;;;5073557;28;20425;-43
2022/11/09 11:02:25;;;;;;;4.53;2.60;;;18.70;90.30;;;;;;5095569;28;20450;-43
2022/11/09 11:05:06;;;;;;;2.57;2.13;;;18.70;90.30;;;;;;5077110;28;20499;-46
2022/11/09 11:07:33;;;;;;;2.03;1.83;;;18.70;90.40;;;;;;5094290;28;21039;-44
2022/11/09 11:10:14;;;;;;;3.07;2.30;;;18.70;90.40;;;;;;5095247;28;20420;-43
2022/11/09 11:12:45;;;;;;;2.63;2.10;;;18.70;90.40;;;;;;5104495;28;20441;-43
2022/11/09 11:15:34;;;;;;;2.40;2.00;;;18.60;90.30;;;;;;5069828;28;20414;-44
2022/11/09 11:18:01;;;;;;;3.77;2.30;;;18.50;90.40;;;;;;5083930;28;20811;-44
2022/11/09 11:20:31;;;;;;;2.27;1.73;;;18.40;90.40;;;;;;5102381;28;20412;-45
2022/11/09 11:23:16;;;;;;;2.37;1.93;;;18.30;90.60;;;;;;5085607;28;20481;-48
2022/11/09 11:25:54;;;;;;;2.27;1.80;;;18.20;90.70;;;;;;5103629;28;20518;-46
2022/11/09 11:28:42;;;;;;;2.67;1.93;;;18.10;90.90;;;;;;5103414;28;20455;-45
2022/11/09 11:31:18;;;;;;;4.30;1.90;;;18.00;90.90;;;;;;5085127;28;20420;-44
2022/11/09 11:33:44;;;;;;;2.60;2.00;;;17.90;91.10;;;;;;5083250;28;20414;-44
2022/11/09 11:36:31;;;;;;;3.80;2.03;;;17.80;91.20;;;;;;5066777;28;20443;-45
2022/11/09 11:39:24;;;;;;;2.37;2.17;;;17.70;91.40;;;;;;5063855;28;20419;-45
2022/11/09 11:42:14;;;;;;;3.50;1.83;;;17.60;91.50;;;;;;5081530;28;20530;-44
2022/11/09 11:45:00;;;;;;;2.40;1.60;;;17.60;91.60;;;;;;5068898;28;20500;-43
2022/11/09 11:48:06;;;;;;;2.63;2.00;;;17.60;91.70;;;;;;5076754;28;20474;-44
2022/11/09 11:51:06;;;;;;;2.40;2.17;;;17.60;91.80;;;;;;5042571;28;20434;-43
2022/11/09 11:53:54;;;;;;;2.80;2.50;;;17.60;91.90;;;;;;5035038;28;20477;-45
2022/11/09 11:56:27;;;;;;;1.80;1.60;;;17.60;91.90;;;;;;5081583;28;20439;-48
2022/11/09 11:59:02;;;;;;;3.47;1.70;;;17.60;91.80;;;;;;5064022;28;21009;-45
2022/11/09 12:01:37;;;;;;;3.57;2.30;;;17.60;91.90;;;;;;5080050;28;20455;-45
2022/11/09 12:04:38;;;;;;;2.10;1.83;;;17.70;91.80;;;;;;5080825;28;20569;-44
2022/11/09 12:07:19;;;;;;;2.43;2.13;;;17.80;91.80;;;;;;5065572;28;20463;-45
2022/11/09 12:10:10;;;;;;;2.63;1.60;;;17.90;91.70;;;;;;5092144;28;20795;-44
2022/11/09 12:12:53;;;;;;;2.50;2.27;;;18.10;91.60;;;;;;5100047;28;20446;-44
2022/11/09 12:15:37;;;;;;;2.10;1.90;;;18.20;91.30;;;;;;5078912;28;20848;-45
2022/11/09 12:18:41;;;;;;;2.37;1.80;;;18.50;91.30;;;;;;5080216;28;20440;-45
2022/11/09 12:21:19;;;;;;;2.40;1.77;;;18.70;91.00;;;;;;5060882;28;20431;-47
2022/11/09 12:23:57;;;;;;;3.97;1.87;;;18.70;90.50;;;;;;5058802;28;20469;-45
2022/11/09 12:26:44;;;;;;;2.30;1.73;;;18.70;90.40;;;;;;5075788;28;20475;-44
2022/11/09 12:29:26;;;;;;;2.17;1.90;;;18.70;90.20;;;;;;5074562;28;20510;-45
2022/11/09 12:32:23;;;;;;;3.87;1.53;;;18.60;90.40;;;;;;5054944;28;20533;-44
2022/11/09 12:35:14;;;;;;;2.00;1.60;;;18.60;90.50;;;;;;5055047;28;20517;-46
2022/11/09 12:37:54;;;;;;;2.60;1.80;;;18.80;90.50;;;;;;5094227;28;20828;-46
2022/11/09 12:40:24;;;;;;;2.33;1.87;;;18.90;90.40;;;;;;5076909;28;20419;-43
2022/11/09 12:43:15;;;;;;;1.73;1.60;;;19.00;90.20;;;;;;5082270;28;21128;-46
2022/11/09 12:45:42;;;;;;;2.00;1.80;;;19.00;90.10;;;;;;5087583;28;20459;-48
2022/11/09 12:48:28;;;;;;;2.30;1.70;;;19.00;90.00;;;;;;5079979;28;20561;-45
2022/11/09 12:50:54;;;;;;;2.50;1.80;;;18.90;90.00;;;;;;5089129;28;20442;-45
2022/11/09 12:53:24;;;;;;;1.97;1.70;;;18.90;90.10;;;;;;5059147;28;20788;-44
2022/11/09 12:56:05;;;;;;;1.50;1.30;;;18.70;90.10;;;;;;5072355;28;20445;-44
2022/11/09 12:58:33;;;;;;;3.10;2.30;;;18.60;90.40;;;;;;5097162;28;20407;-46
2022/11/09 13:01:00;;;;;;;2.30;1.67;;;18.50;90.50;;;;;;5094368;28;20480;-47
2022/11/09 13:03:28;;;;;;;1.73;1.63;;;18.40;90.60;;;;;;5091492;28;20552;-47